createdAt,value
2023-01-20T00:01:23.331Z,12.60
2023-01-20T00:03:50.574Z,13.27
2023-01-20T00:06:17.117Z,10.90
2023-01-20T00:08:43.727Z,12.73
2023-01-20T00:11:10.213Z,11.83
2023-01-20T00:13:36.918Z,13.87
2023-01-20T00:16:03.687Z,12.53
2023-01-20T00:18:30.233Z,9.90
2023-01-20T00:20:56.693Z,9.57
2023-01-20T00:23:23.161Z,11.20
2023-01-20T00:25:49.670Z,12.07
2023-01-20T00:28:16.165Z,10.63
2023-01-20T00:30:42.668Z,11.80
2023-01-20T00:33:09.189Z,19.00
2023-01-20T00:35:35.657Z,12.97
2023-01-20T00:38:02.173Z,10.97
2023-01-20T00:40:28.641Z,12.10
2023-01-20T00:42:55.129Z,12.07
2023-01-20T00:45:21.588Z,10.87
2023-01-20T00:47:48.082Z,11.50
2023-01-20T00:50:14.581Z,13.50
2023-01-20T00:52:41.068Z,13.37
2023-01-20T00:55:07.527Z,15.07
2023-01-20T00:57:34.025Z,12.03
2023-01-20T01:00:00.525Z,10.80
2023-01-20T01:02:27.049Z,12.43
2023-01-20T01:04:53.557Z,11.00
2023-01-20T01:07:20.086Z,14.00
2023-01-20T01:09:46.621Z,13.30
2023-01-20T01:12:13.277Z,13.80
2023-01-20T01:14:39.830Z,12.50
2023-01-20T01:17:06.340Z,12.40
2023-01-20T01:19:32.834Z,12.97
2023-01-20T01:21:59.296Z,12.17
2023-01-20T01:24:25.791Z,12.77
2023-01-20T01:26:52.292Z,12.17
2023-01-20T01:29:18.782Z,12.00
2023-01-20T01:31:45.337Z,11.50
2023-01-20T01:34:11.969Z,13.03
2023-01-20T01:36:38.573Z,13.50
2023-01-20T01:39:05.126Z,13.00
2023-01-20T01:41:31.614Z,11.97
2023-01-20T01:43:58.109Z,10.87
2023-01-20T01:46:24.564Z,12.33
2023-01-20T01:48:51.044Z,11.23
2023-01-20T01:51:17.547Z,10.60
2023-01-20T01:53:44.062Z,9.10
2023-01-20T01:56:10.541Z,11.03
2023-01-20T01:58:37.118Z,10.60
2023-01-20T02:01:03.696Z,10.20
2023-01-20T02:03:30.299Z,10.20
2023-01-20T02:05:56.788Z,9.80
2023-01-20T02:08:23.287Z,8.40
2023-01-20T02:10:49.774Z,10.60
2023-01-20T02:13:16.277Z,10.10
2023-01-20T02:15:42.778Z,9.57
2023-01-20T02:18:09.262Z,10.57
2023-01-20T02:20:35.904Z,9.70
2023-01-20T02:23:02.372Z,11.07
2023-01-20T02:25:28.843Z,10.53
2023-01-20T02:27:55.364Z,10.10
2023-01-20T02:30:21.859Z,10.27
2023-01-20T02:32:48.512Z,10.47
2023-01-20T02:35:15.171Z,10.17
2023-01-20T02:37:41.866Z,11.53
2023-01-20T02:40:08.406Z,11.70
2023-01-20T02:42:34.875Z,9.37
2023-01-20T02:45:01.372Z,10.47
2023-01-20T02:47:27.839Z,11.60
2023-01-20T02:49:54.351Z,9.87
2023-01-20T02:52:20.873Z,10.47
2023-01-20T02:54:47.413Z,10.30
2023-01-20T02:57:13.885Z,10.40
2023-01-20T02:59:40.395Z,10.60
2023-01-20T03:02:06.939Z,10.47
2023-01-20T03:04:33.479Z,9.60
2023-01-20T03:06:59.931Z,10.77
2023-01-20T03:09:26.407Z,12.30
2023-01-20T03:11:52.919Z,11.53
2023-01-20T03:14:19.410Z,10.33
2023-01-20T03:16:48.182Z,12.00
2023-01-20T03:19:14.764Z,10.67
2023-01-20T03:21:41.233Z,12.80
2023-01-20T03:24:07.730Z,12.50
2023-01-20T03:26:34.203Z,10.60
2023-01-20T03:29:00.709Z,12.13
2023-01-20T03:31:27.302Z,10.03
2023-01-20T03:33:53.853Z,11.90
2023-01-20T03:36:20.307Z,12.87
2023-01-20T03:38:46.803Z,10.90
2023-01-20T03:41:13.307Z,11.30
2023-01-20T03:43:39.815Z,12.67
2023-01-20T03:46:06.306Z,12.30
2023-01-20T03:48:32.782Z,11.40
2023-01-20T03:50:59.353Z,11.63
2023-01-20T03:53:26.084Z,12.00
2023-01-20T03:55:52.551Z,11.13
2023-01-20T03:58:20.575Z,10.30
2023-01-20T04:00:47.128Z,9.13
2023-01-20T04:03:13.645Z,11.20
2023-01-20T04:05:40.269Z,10.10
2023-01-20T04:08:06.737Z,9.77
2023-01-20T04:10:33.212Z,11.30
2023-01-20T04:12:59.680Z,10.80
2023-01-20T04:15:26.634Z,10.97
2023-01-20T04:17:53.729Z,10.77
2023-01-20T04:20:20.236Z,10.40
2023-01-20T04:22:46.692Z,11.07
2023-01-20T04:25:13.473Z,10.73
2023-01-20T04:27:40.183Z,10.53
2023-01-20T04:30:06.739Z,11.00
2023-01-20T04:32:33.210Z,11.07
2023-01-20T04:34:59.845Z,11.40
2023-01-20T04:37:26.412Z,10.93
2023-01-20T04:39:53.636Z,11.67
2023-01-20T04:42:20.116Z,8.97
2023-01-20T04:44:46.587Z,11.70
2023-01-20T04:47:13.051Z,10.27
2023-01-20T04:49:39.535Z,10.13
2023-01-20T04:52:06.001Z,9.67
2023-01-20T04:54:32.527Z,9.80
2023-01-20T04:56:59.008Z,9.83
2023-01-20T04:59:25.461Z,10.07
2023-01-20T05:01:52.110Z,8.97
2023-01-20T05:04:18.716Z,8.73
2023-01-20T05:06:45.273Z,9.90
2023-01-20T05:09:11.780Z,11.03
2023-01-20T05:11:38.254Z,10.93
2023-01-20T05:14:04.790Z,9.60
2023-01-20T05:16:32.264Z,10.10
2023-01-20T05:18:58.757Z,11.20
2023-01-20T05:21:25.262Z,9.60
2023-01-20T05:23:51.737Z,11.77
2023-01-20T05:26:18.234Z,9.47
2023-01-20T05:28:44.697Z,10.33
2023-01-20T05:31:11.273Z,10.10
2023-01-20T05:33:39.687Z,9.37
2023-01-20T05:36:06.274Z,10.30
2023-01-20T05:38:32.790Z,11.10
2023-01-20T05:40:59.271Z,11.17
2023-01-20T05:43:25.777Z,10.80
2023-01-20T05:45:52.278Z,9.80
2023-01-20T05:48:18.763Z,11.47
2023-01-20T05:50:45.252Z,11.90
2023-01-20T05:53:11.720Z,12.20
2023-01-20T05:55:38.240Z,13.20
2023-01-20T05:58:04.926Z,12.20
2023-01-20T06:00:31.611Z,12.80
2023-01-20T06:02:58.117Z,12.10
2023-01-20T06:05:24.609Z,12.57
2023-01-20T06:07:51.165Z,14.57
2023-01-20T06:10:17.666Z,11.90
2023-01-20T06:12:44.138Z,11.63
2023-01-20T06:15:10.631Z,10.87
2023-01-20T06:17:37.103Z,12.47
2023-01-20T06:20:04.378Z,12.90
2023-01-20T06:22:30.892Z,13.70
2023-01-20T06:24:57.341Z,11.60
2023-01-20T06:27:23.914Z,9.47
2023-01-20T06:29:50.803Z,10.53
2023-01-20T06:32:17.329Z,11.40
2023-01-20T06:34:43.791Z,10.10
2023-01-20T06:37:10.296Z,11.03
2023-01-20T06:39:37.505Z,9.10
2023-01-20T06:42:04.014Z,8.83
2023-01-20T06:44:30.610Z,9.20
2023-01-20T06:46:57.928Z,9.23
2023-01-20T06:49:24.405Z,8.20
2023-01-20T06:51:50.924Z,8.43
2023-01-20T06:54:17.387Z,8.87
2023-01-20T06:56:43.935Z,8.03
2023-01-20T06:59:10.437Z,7.60
2023-01-20T07:01:36.976Z,7.77
2023-01-20T07:04:03.498Z,8.60
2023-01-20T07:06:30.005Z,8.53
2023-01-20T07:08:58.676Z,9.80
2023-01-20T07:11:25.427Z,9.60
2023-01-20T07:13:51.902Z,8.97
2023-01-20T07:16:18.438Z,9.70
2023-01-20T07:18:45.031Z,8.00
2023-01-20T07:21:11.579Z,9.00
2023-01-20T07:23:38.058Z,8.60
2023-01-20T07:26:04.580Z,8.50
2023-01-20T07:28:31.308Z,8.50
2023-01-20T07:30:57.933Z,8.63
2023-01-20T07:33:24.498Z,8.57
2023-01-20T07:35:50.969Z,10.17
2023-01-20T07:38:17.462Z,12.43
2023-01-20T07:40:43.934Z,11.30
2023-01-20T07:43:10.422Z,9.77
2023-01-20T07:45:36.946Z,10.70
2023-01-20T07:48:03.853Z,12.60
2023-01-20T07:50:30.424Z,10.10
2023-01-20T07:52:56.910Z,11.80
2023-01-20T07:55:25.096Z,10.67
2023-01-20T07:57:51.794Z,10.93
2023-01-20T08:00:18.268Z,12.40
2023-01-20T08:02:44.772Z,10.57
2023-01-20T08:05:11.246Z,12.27
2023-01-20T08:07:37.734Z,11.53
2023-01-20T08:10:04.235Z,12.50
2023-01-20T08:12:30.939Z,12.20
2023-01-20T08:14:57.427Z,11.00
2023-01-20T08:17:23.989Z,12.17
2023-01-20T08:19:50.466Z,12.93
2023-01-20T08:22:17.006Z,12.90
2023-01-20T08:24:43.528Z,13.87
2023-01-20T08:27:10.029Z,14.00
2023-01-20T08:29:36.500Z,14.00
2023-01-20T08:32:02.974Z,13.83
2023-01-20T08:34:29.474Z,13.57
2023-01-20T08:36:57.452Z,13.50
2023-01-20T08:39:24.042Z,11.63
2023-01-20T08:41:50.569Z,12.53
2023-01-20T08:44:17.084Z,12.97
2023-01-20T08:46:43.624Z,13.20
2023-01-20T08:49:10.085Z,13.60
2023-01-20T08:51:36.668Z,12.20
2023-01-20T08:54:03.197Z,13.70
2023-01-20T08:56:29.757Z,12.50
2023-01-20T08:58:56.256Z,11.67
2023-01-20T09:01:22.777Z,12.07
2023-01-20T09:04:03.740Z,12.77
2023-01-20T09:06:31.173Z,11.83
2023-01-20T09:08:57.708Z,11.73
2023-01-20T09:11:27.456Z,12.50
2023-01-20T09:13:53.952Z,11.23
2023-01-20T09:16:20.596Z,11.03
2023-01-20T09:18:47.132Z,10.30
2023-01-20T09:21:13.671Z,10.20
2023-01-20T09:23:40.210Z,12.00
2023-01-20T09:26:06.683Z,11.10
2023-01-20T09:28:33.302Z,10.37
2023-01-20T09:31:00.054Z,10.00
2023-01-20T09:33:26.639Z,8.60
2023-01-20T09:35:53.123Z,9.40
2023-01-20T09:38:38.460Z,10.73
2023-01-20T09:41:23.863Z,10.67
2023-01-20T09:43:56.815Z,10.83
2023-01-20T09:46:23.315Z,8.73
2023-01-20T09:49:08.671Z,11.30
2023-01-20T09:51:53.826Z,11.40
2023-01-20T09:54:20.369Z,9.73
2023-01-20T09:56:46.924Z,8.27
2023-01-20T09:59:13.520Z,7.53
2023-01-20T10:01:40.089Z,7.10
2023-01-20T10:04:06.628Z,7.87
2023-01-20T10:06:33.149Z,7.40
2023-01-20T10:09:05.608Z,6.20
2023-01-20T10:11:32.937Z,6.27
2023-01-20T10:13:59.542Z,7.50
2023-01-20T10:16:26.033Z,6.23
2023-01-20T10:18:52.629Z,5.90
2023-01-20T10:21:19.328Z,5.30
2023-01-20T10:23:45.877Z,5.93
2023-01-20T10:26:12.380Z,6.00
2023-01-20T10:28:38.945Z,5.47
2023-01-20T10:31:05.592Z,6.00
2023-01-20T10:33:32.146Z,6.73
2023-01-20T10:35:58.623Z,6.37
2023-01-20T10:38:25.140Z,6.27
2023-01-20T10:40:51.650Z,4.40
2023-01-20T10:43:18.185Z,6.33
2023-01-20T10:45:44.677Z,4.80
2023-01-20T10:48:11.162Z,5.57
2023-01-20T10:50:37.638Z,4.27
2023-01-20T10:53:04.187Z,4.97
2023-01-20T10:55:30.772Z,4.80
2023-01-20T10:57:57.263Z,4.47
2023-01-20T11:00:23.772Z,5.30
2023-01-20T11:02:52.265Z,4.33
2023-01-20T11:05:18.777Z,4.37
2023-01-20T11:07:45.299Z,4.23
2023-01-20T11:10:11.787Z,4.70
2023-01-20T11:12:38.319Z,4.07
2023-01-20T11:15:04.846Z,4.70
2023-01-20T11:17:31.312Z,4.30
2023-01-20T11:19:57.800Z,3.80
2023-01-20T11:22:24.295Z,4.23
2023-01-20T11:24:50.849Z,4.43
2023-01-20T11:27:17.397Z,4.33
2023-01-20T11:29:43.918Z,4.83
2023-01-20T11:32:10.489Z,4.40
2023-01-20T11:34:38.740Z,4.40
2023-01-20T11:37:05.279Z,4.80
2023-01-20T11:39:33.481Z,3.90
2023-01-20T11:41:59.960Z,4.37
2023-01-20T11:44:26.552Z,4.53
2023-01-20T11:46:53.129Z,5.07
2023-01-20T11:49:19.813Z,5.00
2023-01-20T11:51:46.302Z,5.30
2023-01-20T11:54:12.816Z,5.13
2023-01-20T11:56:39.316Z,4.03
2023-01-20T11:59:05.894Z,3.80
2023-01-20T12:01:32.390Z,4.57
2023-01-20T12:03:58.943Z,4.43
2023-01-20T12:06:25.522Z,4.10
2023-01-20T12:08:52.093Z,3.90
2023-01-20T12:11:18.571Z,3.40
2023-01-20T12:14:03.892Z,4.40
2023-01-20T12:16:30.396Z,4.17
2023-01-20T12:19:02.249Z,4.03
2023-01-20T12:21:29.379Z,4.10
2023-01-20T12:23:55.872Z,4.10
2023-01-20T12:26:22.424Z,4.17
2023-01-20T12:28:50.805Z,4.37
2023-01-20T12:31:20.066Z,4.20
2023-01-20T12:33:46.618Z,3.60
2023-01-20T12:36:13.097Z,4.13
2023-01-20T12:38:39.563Z,4.07
2023-01-20T12:41:06.105Z,5.30
2023-01-20T12:43:32.650Z,4.10
2023-01-20T12:45:59.556Z,4.63
2023-01-20T12:48:26.112Z,4.70
2023-01-20T12:50:52.588Z,4.37
2023-01-20T12:53:19.059Z,4.33
2023-01-20T12:55:45.582Z,4.50
2023-01-20T12:58:12.043Z,4.90
2023-01-20T13:00:38.547Z,3.97
2023-01-20T13:03:05.054Z,4.00
2023-01-20T13:05:31.615Z,4.70
2023-01-20T13:07:58.261Z,3.27
2023-01-20T13:10:24.735Z,4.03
2023-01-20T13:12:51.227Z,4.07
2023-01-20T13:15:17.965Z,4.30
2023-01-20T13:17:44.457Z,3.63
2023-01-20T13:20:10.972Z,4.30
2023-01-20T13:22:37.452Z,4.07
2023-01-20T13:25:04.770Z,4.10
2023-01-20T13:27:31.291Z,4.00
2023-01-20T13:29:58.263Z,4.57
2023-01-20T13:32:24.803Z,5.60
2023-01-20T13:34:51.300Z,3.80
2023-01-20T13:37:17.771Z,4.47
2023-01-20T13:39:44.261Z,4.07
2023-01-20T13:42:10.741Z,4.57
2023-01-20T13:44:37.289Z,4.93
2023-01-20T13:47:03.766Z,4.73
2023-01-20T13:49:30.340Z,4.50
2023-01-20T13:51:56.903Z,4.80
2023-01-20T13:54:28.955Z,4.63
2023-01-20T13:56:55.490Z,4.83
2023-01-20T13:59:21.985Z,5.13
2023-01-20T14:01:48.526Z,4.90
2023-01-20T14:04:15.004Z,4.43
2023-01-20T14:06:41.531Z,5.53
2023-01-20T14:09:09.367Z,5.30
2023-01-20T14:11:35.947Z,5.70
2023-01-20T14:14:02.446Z,5.23
2023-01-20T14:16:28.997Z,5.00
2023-01-20T14:18:55.549Z,5.63
2023-01-20T14:21:22.185Z,5.43
2023-01-20T14:23:48.723Z,5.53
2023-01-20T14:26:15.316Z,4.47
2023-01-20T14:28:41.831Z,4.77
2023-01-20T14:31:08.400Z,5.23
2023-01-20T14:33:34.948Z,5.20
2023-01-20T14:36:01.470Z,5.23
2023-01-20T14:38:28.007Z,5.17
2023-01-20T14:40:54.600Z,4.50
2023-01-20T14:43:21.815Z,5.90
2023-01-20T14:45:48.424Z,5.53
2023-01-20T14:48:28.134Z,5.30
2023-01-20T14:50:56.057Z,5.37
2023-01-20T14:53:22.570Z,5.70
2023-01-20T14:55:49.117Z,6.40
2023-01-20T14:58:15.604Z,5.23
2023-01-20T15:00:42.113Z,5.37
2023-01-20T15:03:11.714Z,4.70
2023-01-20T15:05:38.832Z,5.80
2023-01-20T15:08:08.348Z,5.00
2023-01-20T15:10:34.845Z,19.50
2023-01-20T15:13:01.388Z,7.47
2023-01-20T15:15:27.971Z,6.40
2023-01-20T15:17:54.452Z,5.70
2023-01-20T15:20:20.980Z,9.43
2023-01-20T15:22:47.472Z,5.57
2023-01-20T15:25:13.990Z,4.40
2023-01-20T15:27:40.484Z,4.63
2023-01-20T15:30:07.127Z,4.93
2023-01-20T15:32:33.735Z,4.17
2023-01-20T15:35:00.232Z,5.00
2023-01-20T15:37:27.063Z,4.23
2023-01-20T15:39:54.175Z,4.67
2023-01-20T15:42:20.718Z,4.30
2023-01-20T15:44:47.288Z,4.00
2023-01-20T15:47:13.839Z,4.70
2023-01-20T15:49:40.313Z,4.80
2023-01-20T15:52:06.825Z,4.70
2023-01-20T15:54:33.347Z,5.63
2023-01-20T15:56:59.901Z,5.33
2023-01-20T15:59:29.970Z,4.90
2023-01-20T16:01:56.561Z,7.13
2023-01-20T16:04:23.056Z,5.00
2023-01-20T16:06:49.545Z,4.83
2023-01-20T16:09:16.127Z,5.07
2023-01-20T16:11:42.630Z,4.67
2023-01-20T16:14:09.103Z,5.53
2023-01-20T16:16:35.684Z,5.27
2023-01-20T16:19:02.232Z,5.80
2023-01-20T16:21:28.783Z,4.80
2023-01-20T16:23:55.284Z,4.17
2023-01-20T16:26:24.785Z,5.00
2023-01-20T16:28:51.372Z,4.50
2023-01-20T16:31:17.989Z,4.67
2023-01-20T16:33:44.553Z,5.90
2023-01-20T16:36:11.064Z,5.70
2023-01-20T16:38:38.041Z,5.17
2023-01-20T16:41:04.549Z,7.23
2023-01-20T16:43:31.042Z,6.67
2023-01-20T16:45:57.768Z,7.43
2023-01-20T16:48:24.415Z,6.57
2023-01-20T16:50:50.942Z,5.47
2023-01-20T16:53:17.526Z,5.77
2023-01-20T16:55:44.007Z,6.07
2023-01-20T16:58:10.535Z,5.60
2023-01-20T17:00:37.077Z,5.10
2023-01-20T17:03:03.812Z,6.90
2023-01-20T17:05:30.321Z,5.33
2023-01-20T17:07:57.264Z,5.23
2023-01-20T17:10:23.784Z,6.07
2023-01-20T17:12:50.288Z,5.40
2023-01-20T17:15:16.796Z,5.17
2023-01-20T17:17:43.329Z,4.87
2023-01-20T17:20:13.335Z,5.90
2023-01-20T17:22:40.128Z,5.50
2023-01-20T17:25:06.608Z,6.40
2023-01-20T17:27:33.156Z,6.10
2023-01-20T17:29:59.631Z,4.97
2023-01-20T17:32:26.114Z,5.80
2023-01-20T17:34:52.611Z,5.83
2023-01-20T17:37:19.138Z,5.90
2023-01-20T17:39:46.099Z,5.83
2023-01-20T17:42:12.594Z,6.17
2023-01-20T17:44:39.303Z,5.97
2023-01-20T17:47:05.854Z,6.10
2023-01-20T17:49:32.347Z,4.90
2023-01-20T17:51:58.835Z,6.07
2023-01-20T17:54:25.299Z,4.90
2023-01-20T17:56:51.784Z,5.40
2023-01-20T17:59:18.460Z,5.33
2023-01-20T18:01:44.964Z,5.50
2023-01-20T18:04:11.466Z,5.83
2023-01-20T18:06:38.008Z,6.07
2023-01-20T18:09:04.496Z,5.57
2023-01-20T18:11:31.194Z,5.20
2023-01-20T18:13:57.743Z,6.07
2023-01-20T18:16:24.305Z,6.20
2023-01-20T18:18:50.868Z,6.27
2023-01-20T18:21:17.348Z,4.83
2023-01-20T18:23:43.909Z,6.87
2023-01-20T18:26:10.383Z,5.30
2023-01-20T18:28:36.922Z,5.20
2023-01-20T18:31:08.178Z,5.70
2023-01-20T18:33:38.116Z,6.23
2023-01-20T18:36:04.629Z,5.83
2023-01-20T18:38:31.097Z,6.07
2023-01-20T18:40:57.550Z,4.93
2023-01-20T18:43:24.031Z,5.87
2023-01-20T18:45:50.524Z,4.83
2023-01-20T18:48:17.080Z,5.50
2023-01-20T18:50:43.589Z,5.33
2023-01-20T18:53:10.068Z,5.40
2023-01-20T18:55:36.529Z,4.33
2023-01-20T18:58:03.840Z,6.37
2023-01-20T19:00:30.453Z,6.23
2023-01-20T19:02:58.283Z,5.83
2023-01-20T19:05:24.956Z,5.50
2023-01-20T19:07:51.478Z,5.00
2023-01-20T19:10:18.165Z,5.00
2023-01-20T19:12:44.908Z,5.80
2023-01-20T19:15:11.415Z,6.13
2023-01-20T19:17:37.926Z,5.67
2023-01-20T19:20:04.716Z,4.67
2023-01-20T19:22:31.340Z,6.27
2023-01-20T19:24:58.839Z,6.40
2023-01-20T19:27:26.381Z,6.57
2023-01-20T19:29:53.662Z,5.73
2023-01-20T19:32:20.143Z,5.70
2023-01-20T19:34:47.002Z,6.00
2023-01-20T19:37:13.531Z,4.80
2023-01-20T19:39:40.035Z,5.30
2023-01-20T19:42:06.506Z,5.43
2023-01-20T19:44:33.005Z,5.50
2023-01-20T19:47:04.033Z,5.83
2023-01-20T19:49:30.573Z,6.83
2023-01-20T19:51:57.401Z,6.87
2023-01-20T19:54:28.336Z,8.30
2023-01-20T19:56:54.952Z,18.27
2023-01-20T19:59:21.672Z,22.50
2023-01-20T20:01:48.270Z,6.30
2023-01-20T20:04:14.941Z,6.60
2023-01-20T20:06:44.150Z,6.73
2023-01-20T20:09:11.577Z,6.03
2023-01-20T20:11:38.121Z,5.17
2023-01-20T20:14:04.654Z,6.27
2023-01-20T20:16:31.195Z,6.27
2023-01-20T20:18:57.696Z,5.70
2023-01-20T20:21:24.226Z,5.80
2023-01-20T20:23:50.747Z,6.63
2023-01-20T20:26:17.295Z,6.60
2023-01-20T20:28:43.939Z,8.40
2023-01-20T20:31:10.577Z,7.90
2023-01-20T20:33:37.637Z,8.07
2023-01-20T20:36:04.111Z,10.70
2023-01-20T20:38:30.612Z,7.97
2023-01-20T20:40:57.846Z,7.47
2023-01-20T20:43:25.165Z,8.20
2023-01-20T20:45:51.757Z,7.97
2023-01-20T20:48:18.268Z,7.50
2023-01-20T20:50:45.836Z,7.63
2023-01-20T20:53:12.343Z,8.27
2023-01-20T20:55:38.881Z,5.90
2023-01-20T20:58:05.391Z,5.77
2023-01-20T21:00:31.905Z,5.97
2023-01-20T21:02:58.515Z,6.47
2023-01-20T21:05:25.056Z,5.57
2023-01-20T21:07:51.548Z,5.70
2023-01-20T21:10:18.357Z,5.33
2023-01-20T21:12:45.692Z,7.20
2023-01-20T21:15:12.397Z,6.70
2023-01-20T21:17:38.946Z,5.97
2023-01-20T21:20:05.451Z,5.93
2023-01-20T21:22:35.153Z,5.27
2023-01-20T21:25:01.665Z,7.60
2023-01-20T21:27:28.193Z,7.10
2023-01-20T21:29:54.706Z,6.87
2023-01-20T21:32:21.236Z,6.90
2023-01-20T21:34:47.733Z,5.70
2023-01-20T21:37:14.212Z,5.10
2023-01-20T21:39:40.757Z,5.20
2023-01-20T21:42:08.992Z,5.53
2023-01-20T21:44:36.380Z,5.60
2023-01-20T21:47:03.197Z,5.80
2023-01-20T21:49:48.580Z,6.10
2023-01-20T21:52:33.724Z,6.30
2023-01-20T21:55:00.297Z,4.97
2023-01-20T21:57:26.978Z,6.67
2023-01-20T21:59:53.743Z,4.20
2023-01-20T22:02:20.551Z,5.07
2023-01-20T22:04:49.322Z,5.67
2023-01-20T22:07:17.283Z,4.60
2023-01-20T22:09:43.819Z,6.20
2023-01-20T22:12:10.303Z,5.40
2023-01-20T22:14:36.906Z,4.90
2023-01-20T22:17:03.473Z,6.13
2023-01-20T22:19:29.987Z,6.23
2023-01-20T22:21:56.818Z,4.47
2023-01-20T22:24:23.402Z,4.37
2023-01-20T22:26:49.907Z,4.63
2023-01-20T22:29:16.380Z,4.60
2023-01-20T22:31:42.918Z,5.37
2023-01-20T22:34:09.907Z,5.40
2023-01-20T22:36:36.406Z,5.63
2023-01-20T22:39:02.929Z,4.70
2023-01-20T22:41:29.446Z,4.47
2023-01-20T22:43:55.969Z,4.00
2023-01-20T22:46:22.479Z,5.10
2023-01-20T22:48:48.980Z,4.60
2023-01-20T22:51:15.538Z,6.00
2023-01-20T22:53:42.060Z,6.07
2023-01-20T22:56:08.585Z,5.00
2023-01-20T22:58:35.135Z,5.40
2023-01-20T23:01:01.743Z,5.90
2023-01-20T23:03:28.371Z,5.47
2023-01-20T23:05:56.671Z,4.83
2023-01-20T23:08:23.453Z,5.50
2023-01-20T23:10:50.068Z,4.60
2023-01-20T23:13:16.588Z,4.87
2023-01-20T23:15:43.771Z,5.17
2023-01-20T23:18:10.376Z,5.30
2023-01-20T23:20:36.948Z,6.23
2023-01-20T23:23:03.494Z,5.73
2023-01-20T23:25:30.050Z,4.93
2023-01-20T23:27:56.636Z,5.63
2023-01-20T23:30:23.119Z,5.43
2023-01-20T23:32:49.608Z,4.40
2023-01-20T23:35:16.144Z,5.23
2023-01-20T23:37:42.612Z,4.90
2023-01-20T23:40:09.150Z,5.10
2023-01-20T23:42:35.648Z,4.10
2023-01-20T23:45:02.248Z,5.20
2023-01-20T23:47:28.729Z,4.73
2023-01-20T23:49:55.211Z,5.37
2023-01-20T23:52:22.512Z,6.13
2023-01-20T23:54:49.181Z,5.90
2023-01-20T23:57:15.671Z,4.73
2023-01-20T23:59:42.246Z,4.03
